createdAt,value
2017-06-19T00:02:10.073Z,6.62
2017-06-19T00:04:44.453Z,6.60
2017-06-19T00:07:18.939Z,6.30
2017-06-19T00:09:53.579Z,6.55
2017-06-19T00:12:28.020Z,6.07
2017-06-19T00:15:02.601Z,5.72
2017-06-19T00:17:37.822Z,6.95
2017-06-19T00:20:12.258Z,7.18
2017-06-19T00:22:53.173Z,7.50
2017-06-19T00:25:27.545Z,7.28
2017-06-19T00:28:01.921Z,6.60
2017-06-19T00:30:36.389Z,6.45
2017-06-19T00:33:11.150Z,6.68
2017-06-19T00:35:46.333Z,6.10
2017-06-19T00:38:22.825Z,6.47
2017-06-19T00:40:57.224Z,7.05
2017-06-19T00:43:31.812Z,6.97
2017-06-19T00:46:06.980Z,8.15
2017-06-19T00:48:41.443Z,6.85
2017-06-19T00:51:22.444Z,7.40
2017-06-19T00:53:56.805Z,6.50
2017-06-19T00:56:31.264Z,6.75
2017-06-19T00:59:05.720Z,6.75
2017-06-19T01:01:40.400Z,6.22
2017-06-19T01:04:14.774Z,6.60
2017-06-19T01:06:49.244Z,6.93
2017-06-19T01:09:23.741Z,7.50
2017-06-19T01:11:58.906Z,6.57
2017-06-19T01:14:33.190Z,7.40
2017-06-19T01:17:08.320Z,6.60
2017-06-19T01:19:42.820Z,6.95
2017-06-19T01:22:17.369Z,7.45
2017-06-19T01:24:51.732Z,8.48
2017-06-19T01:27:26.185Z,7.55
2017-06-19T01:30:00.525Z,8.38
2017-06-19T01:32:35.053Z,9.15
2017-06-19T01:35:09.597Z,8.73
2017-06-19T01:37:43.972Z,8.77
2017-06-19T01:40:18.625Z,8.73
2017-06-19T01:42:53.733Z,9.13
2017-06-19T01:45:28.149Z,9.60
2017-06-19T01:48:02.492Z,8.13
2017-06-19T01:50:37.140Z,8.90
2017-06-19T01:53:11.624Z,8.85
2017-06-19T01:55:46.041Z,10.02
2017-06-19T01:58:20.561Z,9.05
2017-06-19T02:00:54.921Z,12.27
2017-06-19T02:03:29.424Z,10.05
2017-06-19T02:06:03.857Z,9.60
2017-06-19T02:08:38.356Z,8.65
2017-06-19T02:11:13.513Z,9.40
2017-06-19T02:13:48.013Z,8.88
2017-06-19T02:16:22.350Z,8.68
2017-06-19T02:18:56.852Z,8.88
2017-06-19T02:21:31.485Z,8.52
2017-06-19T02:24:05.856Z,8.77
2017-06-19T02:26:40.223Z,9.30
2017-06-19T02:29:14.685Z,8.50
2017-06-19T02:31:49.117Z,8.75
2017-06-19T02:34:23.633Z,8.90
2017-06-19T02:36:58.133Z,8.38
2017-06-19T02:39:32.557Z,8.50
2017-06-19T02:42:07.257Z,8.80
2017-06-19T02:44:41.578Z,9.38
2017-06-19T02:47:16.152Z,8.63
2017-06-19T02:49:50.480Z,9.50
2017-06-19T02:52:24.873Z,9.20
2017-06-19T02:55:00.032Z,9.60
2017-06-19T02:57:34.500Z,8.98
2017-06-19T03:00:09.737Z,9.45
2017-06-19T03:02:44.277Z,10.80
2017-06-19T03:05:18.835Z,9.32
2017-06-19T03:07:53.292Z,9.20
2017-06-19T03:10:35.568Z,9.77
2017-06-19T03:13:10.029Z,9.88
2017-06-19T03:15:44.564Z,9.00
2017-06-19T03:18:19.833Z,9.90
2017-06-19T03:20:54.205Z,8.45
2017-06-19T03:23:28.704Z,9.73
2017-06-19T03:26:03.040Z,10.85
2017-06-19T03:28:37.585Z,11.38
2017-06-19T03:31:12.061Z,11.02
2017-06-19T03:33:46.432Z,11.30
2017-06-19T03:36:20.886Z,9.82
2017-06-19T03:38:55.269Z,9.77
2017-06-19T03:41:30.550Z,11.00
2017-06-19T03:44:04.949Z,11.48
2017-06-19T03:46:39.381Z,10.15
2017-06-19T03:49:13.845Z,10.45
2017-06-19T03:51:48.292Z,9.70
2017-06-19T03:54:22.864Z,11.75
2017-06-19T03:56:57.252Z,13.75
2017-06-19T03:59:31.769Z,14.63
2017-06-19T04:02:06.217Z,11.80
2017-06-19T04:04:40.699Z,15.25
2017-06-19T04:07:15.193Z,14.98
2017-06-19T04:09:50.378Z,14.30
2017-06-19T04:12:24.854Z,18.45
2017-06-19T04:14:59.201Z,16.62
2017-06-19T04:17:33.533Z,18.60
2017-06-19T04:20:08.019Z,21.40
2017-06-19T04:22:42.597Z,23.90
2017-06-19T04:25:17.786Z,21.80
2017-06-19T04:27:52.255Z,19.95
2017-06-19T04:30:27.589Z,19.90
2017-06-19T04:33:02.170Z,17.75
2017-06-19T04:35:36.652Z,18.95
2017-06-19T04:41:15.784Z,17.98
2017-06-19T04:43:50.187Z,17.50
2017-06-19T04:46:25.356Z,18.50
2017-06-19T04:49:00.460Z,16.60
2017-06-19T04:51:35.131Z,16.37
2017-06-19T04:54:10.419Z,17.92
2017-06-19T04:56:44.801Z,19.15
2017-06-19T04:59:19.393Z,17.83
2017-06-19T05:01:53.778Z,15.75
2017-06-19T05:04:29.057Z,17.00
2017-06-19T05:07:03.561Z,17.62
2017-06-19T05:09:38.202Z,16.85
2017-06-19T05:12:12.749Z,18.73
2017-06-19T05:14:47.341Z,15.82
2017-06-19T05:17:21.861Z,15.73
2017-06-19T05:19:56.273Z,15.98
2017-06-19T05:22:30.767Z,15.05
2017-06-19T05:25:05.253Z,13.07
2017-06-19T05:27:39.724Z,13.65
2017-06-19T05:30:14.217Z,7.28
2017-06-19T05:32:48.561Z,8.85
2017-06-19T05:35:22.888Z,8.05
2017-06-19T05:37:57.365Z,6.95
2017-06-19T05:40:31.704Z,8.57
2017-06-19T05:43:06.259Z,10.48
2017-06-19T05:45:40.816Z,10.38
2017-06-19T05:48:15.338Z,9.80
2017-06-19T05:50:49.725Z,9.82
2017-06-19T05:53:24.093Z,9.10
2017-06-19T05:55:58.490Z,9.80
2017-06-19T05:58:32.828Z,9.18
2017-06-19T06:01:07.213Z,7.70
2017-06-19T06:03:41.564Z,7.72
2017-06-19T06:06:16.124Z,6.70
2017-06-19T06:08:50.659Z,7.03
2017-06-19T06:11:25.192Z,4.90
2017-06-19T06:13:59.652Z,4.83
2017-06-19T06:16:34.268Z,5.37
2017-06-19T06:19:08.788Z,5.67
2017-06-19T06:21:43.249Z,6.77
2017-06-19T06:24:17.676Z,6.97
2017-06-19T06:26:52.136Z,5.93
2017-06-19T06:29:26.600Z,7.37
2017-06-19T06:32:01.116Z,8.10
2017-06-19T06:34:35.639Z,7.77
2017-06-19T06:37:10.081Z,6.87
2017-06-19T06:39:44.592Z,8.40
2017-06-19T06:42:19.056Z,10.00
2017-06-19T06:44:53.632Z,9.00
2017-06-19T06:47:28.805Z,10.83
2017-06-19T06:50:04.093Z,10.37
2017-06-19T06:52:38.685Z,9.10
2017-06-19T06:55:14.050Z,9.53
2017-06-19T06:57:48.634Z,8.33
2017-06-19T07:00:23.178Z,8.93
2017-06-19T07:02:57.583Z,10.27
2017-06-19T07:05:32.197Z,9.13
2017-06-19T07:08:06.919Z,9.60
2017-06-19T07:10:41.404Z,8.70
2017-06-19T07:13:15.833Z,8.57
2017-06-19T07:15:50.301Z,8.20
2017-06-19T07:18:24.797Z,6.67
2017-06-19T07:20:59.437Z,6.60
2017-06-19T07:23:34.720Z,5.57
2017-06-19T07:26:09.197Z,5.47
2017-06-19T07:28:43.632Z,4.83
2017-06-19T07:31:18.020Z,4.70
2017-06-19T07:33:52.545Z,5.33
2017-06-19T07:36:27.132Z,5.00
2017-06-19T07:39:01.585Z,5.30
2017-06-19T07:41:36.077Z,5.20
2017-06-19T07:44:10.657Z,5.40
2017-06-19T07:46:45.917Z,5.30
2017-06-19T07:49:20.692Z,6.47
2017-06-19T07:51:55.137Z,5.93
2017-06-19T07:54:29.640Z,5.33
2017-06-19T07:57:04.004Z,4.60
2017-06-19T07:59:39.183Z,4.30
2017-06-19T08:02:13.685Z,5.33
2017-06-19T08:04:48.253Z,5.10
2017-06-19T08:07:22.741Z,4.13
2017-06-19T08:09:57.186Z,5.40
2017-06-19T08:12:31.724Z,3.97
2017-06-19T08:15:06.218Z,3.67
2017-06-19T08:17:40.717Z,3.63
2017-06-19T08:20:15.269Z,3.67
2017-06-19T08:22:49.773Z,4.50
2017-06-19T08:25:24.287Z,3.60
2017-06-19T08:27:59.628Z,3.53
2017-06-19T08:30:34.209Z,4.33
2017-06-19T08:33:08.765Z,3.30
2017-06-19T08:35:43.365Z,4.10
2017-06-19T08:38:17.828Z,2.70
2017-06-19T08:40:52.241Z,2.90
2017-06-19T08:43:26.657Z,3.13
2017-06-19T08:46:01.190Z,3.20
2017-06-19T08:48:35.689Z,3.07
2017-06-19T08:51:10.149Z,2.97
2017-06-19T08:53:44.629Z,2.60
2017-06-19T08:56:19.185Z,2.47
2017-06-19T08:58:54.377Z,2.67
2017-06-19T09:01:29.057Z,2.50
2017-06-19T09:04:03.424Z,2.67
2017-06-19T09:06:37.797Z,2.53
2017-06-19T09:09:12.282Z,3.10
2017-06-19T09:11:47.433Z,2.70
2017-06-19T09:14:21.804Z,2.73
2017-06-19T09:16:56.576Z,3.50
2017-06-19T09:19:31.873Z,3.47
2017-06-19T09:22:06.633Z,3.47
2017-06-19T09:24:41.025Z,2.90
2017-06-19T09:27:15.510Z,3.30
2017-06-19T09:29:50.101Z,3.43
2017-06-19T09:32:24.605Z,3.23
2017-06-19T09:34:59.036Z,3.30
2017-06-19T09:37:33.553Z,3.23
2017-06-19T09:40:07.982Z,4.00
2017-06-19T09:42:42.489Z,3.90
2017-06-19T09:45:16.872Z,3.77
2017-06-19T09:47:51.429Z,3.73
2017-06-19T09:50:26.197Z,3.83
2017-06-19T09:53:20.209Z,4.33
2017-06-19T09:55:54.729Z,4.53
2017-06-19T09:58:29.289Z,4.03
2017-06-19T10:01:03.945Z,5.03
2017-06-19T10:03:38.421Z,5.07
2017-06-19T10:06:13.577Z,4.70
2017-06-19T10:08:47.969Z,4.30
2017-06-19T10:11:22.605Z,3.87
2017-06-19T10:13:57.045Z,3.80
2017-06-19T10:16:32.174Z,4.17
2017-06-19T10:19:06.664Z,4.40
2017-06-19T10:21:41.081Z,3.90
2017-06-19T10:24:15.512Z,4.37
2017-06-19T10:26:49.965Z,4.87
2017-06-19T10:29:24.389Z,3.93
2017-06-19T10:31:59.713Z,4.40
2017-06-19T10:34:34.237Z,3.97
2017-06-19T10:37:08.626Z,3.60
2017-06-19T10:39:43.116Z,3.83
2017-06-19T10:42:17.592Z,3.97
2017-06-19T10:44:51.981Z,4.30
2017-06-19T10:47:27.356Z,4.00
2017-06-19T10:50:02.593Z,4.67
2017-06-19T10:52:36.921Z,5.03
2017-06-19T10:55:11.951Z,4.63
2017-06-19T10:57:46.455Z,4.50
2017-06-19T11:00:20.882Z,4.23
2017-06-19T11:02:55.420Z,5.40
2017-06-19T11:05:29.793Z,5.00
2017-06-19T11:08:04.976Z,4.27
2017-06-19T11:10:39.281Z,4.87
2017-06-19T11:13:13.861Z,4.13
2017-06-19T11:15:48.262Z,4.80
2017-06-19T11:18:22.668Z,4.30
2017-06-19T11:20:57.632Z,5.10
2017-06-19T11:23:32.085Z,4.00
2017-06-19T11:26:06.585Z,3.93
2017-06-19T11:28:41.113Z,3.90
2017-06-19T11:31:15.525Z,4.60
2017-06-19T11:33:49.888Z,4.43
2017-06-19T11:36:24.434Z,4.40
2017-06-19T11:38:59.225Z,4.77
2017-06-19T11:41:33.673Z,4.77
2017-06-19T11:44:08.893Z,5.10
2017-06-19T11:46:43.269Z,4.27
2017-06-19T11:52:22.681Z,3.57
2017-06-19T11:54:57.037Z,3.83
2017-06-19T11:57:31.364Z,4.20
2017-06-19T12:00:05.803Z,4.80
2017-06-19T12:02:40.226Z,4.50
2017-06-19T12:05:14.609Z,4.60
2017-06-19T12:07:49.373Z,4.10
2017-06-19T12:10:23.792Z,4.10
2017-06-19T12:12:58.196Z,5.53
2017-06-19T12:15:33.678Z,5.00
2017-06-19T12:18:08.861Z,4.80
2017-06-19T12:20:44.312Z,4.27
2017-06-19T12:23:19.533Z,4.13
2017-06-19T12:25:54.722Z,4.70
2017-06-19T12:28:29.212Z,4.60
2017-06-19T12:31:04.377Z,4.50
2017-06-19T12:33:38.868Z,4.30
2017-06-19T12:36:13.247Z,4.20
2017-06-19T12:38:47.595Z,4.50
2017-06-19T12:41:22.109Z,4.17
2017-06-19T12:43:56.701Z,3.90
2017-06-19T12:46:31.274Z,4.50
2017-06-19T12:49:05.923Z,3.60
2017-06-19T12:51:40.350Z,4.30
2017-06-19T12:54:15.494Z,5.87
2017-06-19T12:57:04.940Z,4.70
2017-06-19T12:59:40.245Z,5.20
2017-06-19T13:02:14.739Z,5.00
2017-06-19T13:04:49.239Z,5.00
2017-06-19T13:07:23.748Z,3.87
2017-06-19T13:09:58.493Z,4.67
2017-06-19T13:12:34.342Z,4.23
2017-06-19T13:18:12.556Z,4.27
2017-06-19T13:20:47.141Z,4.20
2017-06-19T13:26:25.804Z,4.67
2017-06-19T13:29:00.209Z,4.70
2017-06-19T13:31:34.645Z,4.27
2017-06-19T13:34:09.157Z,4.03
2017-06-19T13:36:43.589Z,5.10
2017-06-19T13:39:18.090Z,3.30
2017-06-19T13:41:52.517Z,4.60
2017-06-19T13:44:26.930Z,4.93
2017-06-19T13:47:01.345Z,4.10
2017-06-19T13:49:35.799Z,4.00
2017-06-19T13:52:10.139Z,4.67
2017-06-19T13:54:45.909Z,4.37
2017-06-19T13:57:20.468Z,5.53
2017-06-19T13:59:55.577Z,4.37
2017-06-19T14:02:30.738Z,4.20
2017-06-19T14:05:05.234Z,4.10
2017-06-19T14:07:39.633Z,4.17
2017-06-19T14:10:14.141Z,5.20
2017-06-19T14:12:49.417Z,5.33
2017-06-19T14:15:24.194Z,3.80
2017-06-19T14:17:58.533Z,3.87
2017-06-19T14:20:33.089Z,4.17
2017-06-19T14:23:08.341Z,3.63
2017-06-19T14:28:42.905Z,4.30
2017-06-19T14:31:18.145Z,4.63
2017-06-19T14:33:52.675Z,4.10
2017-06-19T14:36:27.077Z,3.90
2017-06-19T14:39:01.445Z,4.57
2017-06-19T14:41:35.915Z,4.37
2017-06-19T14:44:10.456Z,4.30
2017-06-19T14:46:44.929Z,3.90
2017-06-19T14:49:19.750Z,4.60
2017-06-19T14:51:54.305Z,5.47
2017-06-19T14:54:28.955Z,4.43
2017-06-19T14:57:03.444Z,4.73
2017-06-19T14:59:38.597Z,4.50
2017-06-19T15:02:13.001Z,4.20
2017-06-19T15:04:47.646Z,4.60
2017-06-19T15:07:22.137Z,4.33
2017-06-19T15:09:56.741Z,3.97
2017-06-19T15:18:40.540Z,4.33
2017-06-19T15:21:21.230Z,4.87
2017-06-19T15:23:55.728Z,5.80
2017-06-19T15:26:30.245Z,5.10
2017-06-19T15:29:04.693Z,5.07
2017-06-19T15:31:39.197Z,5.77
2017-06-19T15:34:13.728Z,7.60
2017-06-19T15:36:48.938Z,4.33
2017-06-19T15:39:23.545Z,4.47
2017-06-19T15:41:58.833Z,4.23
2017-06-19T15:44:33.252Z,4.80
2017-06-19T15:47:08.017Z,4.47
2017-06-19T15:49:42.564Z,4.40
2017-06-19T16:01:30.644Z,5.17
2017-06-19T16:04:05.109Z,4.10
2017-06-19T16:06:39.494Z,4.90
2017-06-19T16:09:13.952Z,4.70
2017-06-19T16:12:00.245Z,4.03
2017-06-19T16:14:34.776Z,5.00
2017-06-19T16:17:09.272Z,5.43
2017-06-19T16:19:43.765Z,4.80
2017-06-19T16:22:19.020Z,4.53
2017-06-19T16:24:54.141Z,4.80
2017-06-19T16:27:28.541Z,5.13
2017-06-19T16:30:02.969Z,4.40
2017-06-19T16:32:37.360Z,4.20
2017-06-19T16:35:12.252Z,4.77
2017-06-19T16:37:46.785Z,4.60
2017-06-19T16:40:21.293Z,5.20
2017-06-19T16:42:55.678Z,5.00
2017-06-19T16:45:30.244Z,4.13
2017-06-19T16:48:05.369Z,5.20
2017-06-19T16:50:39.676Z,5.00
2017-06-19T16:53:14.125Z,5.17
2017-06-19T16:55:48.493Z,9.70
2017-06-19T16:58:22.985Z,10.17
2017-06-19T17:00:57.475Z,4.80
2017-06-19T17:03:31.865Z,5.70
2017-06-19T17:06:06.325Z,5.47
2017-06-19T17:08:40.781Z,6.17
2017-06-19T17:11:15.181Z,6.40
2017-06-19T17:13:49.661Z,4.57
2017-06-19T17:16:24.846Z,6.10
2017-06-19T17:18:59.346Z,5.80
2017-06-19T17:21:33.777Z,4.57
2017-06-19T17:24:08.312Z,5.13
2017-06-19T17:26:42.737Z,5.40
2017-06-19T17:29:17.212Z,5.60
2017-06-19T17:31:51.672Z,6.60
2017-06-19T17:34:26.025Z,8.10
2017-06-19T17:37:00.694Z,5.43
2017-06-19T17:39:35.008Z,5.50
2017-06-19T17:42:09.633Z,4.93
2017-06-19T17:44:44.140Z,5.20
2017-06-19T17:47:18.617Z,5.00
2017-06-19T17:49:53.189Z,4.73
2017-06-19T17:52:27.605Z,5.80
2017-06-19T17:55:02.016Z,4.97
2017-06-19T17:57:36.441Z,5.00
2017-06-19T18:00:10.757Z,5.47
2017-06-19T18:02:45.346Z,5.87
2017-06-19T18:05:19.682Z,5.50
2017-06-19T18:07:54.099Z,5.60
2017-06-19T18:10:28.681Z,5.80
2017-06-19T18:13:03.944Z,8.10
2017-06-19T18:15:38.425Z,5.43
2017-06-19T18:18:12.888Z,7.77
2017-06-19T18:20:47.469Z,5.10
2017-06-19T18:23:21.981Z,5.60
2017-06-19T18:25:56.417Z,5.40
2017-06-19T18:28:30.913Z,5.23
2017-06-19T18:31:05.548Z,5.20
2017-06-19T18:33:40.048Z,7.30
2017-06-19T18:36:15.322Z,6.50
2017-06-19T18:38:49.808Z,5.57
2017-06-19T18:41:24.369Z,6.20
2017-06-19T18:43:58.859Z,6.83
2017-06-19T18:46:34.096Z,5.67
2017-06-19T18:49:08.725Z,4.90
2017-06-19T18:51:43.937Z,5.50
2017-06-19T18:54:18.500Z,6.30
2017-06-19T18:56:52.897Z,5.50
2017-06-19T18:59:27.345Z,5.50
2017-06-19T19:02:02.626Z,5.30
2017-06-19T19:04:37.221Z,6.10
2017-06-19T19:07:11.794Z,6.20
2017-06-19T19:09:46.199Z,7.00
2017-06-19T19:12:20.532Z,7.17
2017-06-19T19:14:54.965Z,5.90
2017-06-19T19:17:29.395Z,7.57
2017-06-19T19:20:04.122Z,6.40
2017-06-19T19:22:38.466Z,8.40
2017-06-19T19:25:13.081Z,8.00
2017-06-19T19:27:48.266Z,7.40
2017-06-19T19:30:23.437Z,6.67
2017-06-19T19:32:57.893Z,7.50
2017-06-19T19:35:32.427Z,7.40
2017-06-19T19:38:06.835Z,9.40
2017-06-19T19:40:41.273Z,7.53
2017-06-19T19:43:15.829Z,7.60
2017-06-19T19:45:50.259Z,6.70
2017-06-19T19:48:24.584Z,7.20
2017-06-19T19:50:59.001Z,6.63
2017-06-19T19:53:33.502Z,7.00
2017-06-19T19:56:08.097Z,6.97
2017-06-19T19:58:42.641Z,7.60
2017-06-19T20:01:17.053Z,7.83
2017-06-19T20:03:51.624Z,7.30
2017-06-19T20:06:26.213Z,7.77
2017-06-19T20:09:00.653Z,6.90
2017-06-19T20:11:35.745Z,7.53
2017-06-19T20:14:10.893Z,7.13
2017-06-19T20:16:45.997Z,7.10
2017-06-19T20:19:21.189Z,6.90
2017-06-19T20:21:55.509Z,7.43
2017-06-19T20:24:30.093Z,7.87
2017-06-19T20:27:04.640Z,7.50
2017-06-19T20:29:39.160Z,8.20
2017-06-19T20:32:13.876Z,6.43
2017-06-19T20:34:49.097Z,7.60
2017-06-19T20:37:23.504Z,8.17
2017-06-19T20:39:58.038Z,7.70
2017-06-19T20:42:32.585Z,7.53
2017-06-19T20:45:23.944Z,7.60
2017-06-19T20:47:59.321Z,8.23
2017-06-19T20:50:33.706Z,7.50
2017-06-19T20:53:08.987Z,7.80
2017-06-19T20:55:43.540Z,8.03
2017-06-19T20:58:18.825Z,7.53
2017-06-19T21:00:53.293Z,8.17
2017-06-19T21:03:27.802Z,8.30
2017-06-19T21:06:02.237Z,8.47
2017-06-19T21:08:36.610Z,8.60
2017-06-19T21:11:10.969Z,8.00
2017-06-19T21:13:45.464Z,8.73
2017-06-19T21:16:19.856Z,9.20
2017-06-19T21:18:54.486Z,8.90
2017-06-19T21:21:29.842Z,8.23
2017-06-19T21:24:04.232Z,8.30
2017-06-19T21:26:39.426Z,7.90
2017-06-19T21:29:13.851Z,7.60
2017-06-19T21:31:48.370Z,7.73
2017-06-19T21:34:22.731Z,8.00
2017-06-19T21:36:57.216Z,7.90
2017-06-19T21:39:32.506Z,8.80
2017-06-19T21:42:07.097Z,7.90
2017-06-19T21:44:41.633Z,7.10
2017-06-19T21:47:16.135Z,7.90
2017-06-19T21:49:50.611Z,8.00
2017-06-19T21:52:25.226Z,7.97
2017-06-19T21:54:59.773Z,7.67
2017-06-19T21:57:34.535Z,8.63
2017-06-19T22:00:08.997Z,8.03
2017-06-19T22:02:43.560Z,7.20
2017-06-19T22:05:18.065Z,8.33
2017-06-19T22:07:52.496Z,7.70
2017-06-19T22:10:27.785Z,9.30
2017-06-19T22:13:02.378Z,7.70
2017-06-19T22:15:36.740Z,8.77
2017-06-19T22:18:11.909Z,9.10
2017-06-19T22:20:52.070Z,8.33
2017-06-19T22:23:26.478Z,8.50
2017-06-19T22:26:00.810Z,9.43
2017-06-19T22:28:35.347Z,8.73
2017-06-19T22:31:09.717Z,9.73
2017-06-19T22:33:44.265Z,9.70
2017-06-19T22:36:18.741Z,8.80
2017-06-19T22:38:53.486Z,9.47
2017-06-19T22:41:28.029Z,9.13
2017-06-19T22:44:02.474Z,8.70
2017-06-19T22:46:36.837Z,8.70
2017-06-19T22:49:11.210Z,9.63
2017-06-19T22:51:45.697Z,8.70
2017-06-19T22:54:20.133Z,8.93
2017-06-19T22:56:55.441Z,10.13
2017-06-19T22:59:29.888Z,10.27
2017-06-19T23:02:05.204Z,8.97
2017-06-19T23:04:39.702Z,8.73
2017-06-19T23:07:14.230Z,9.20
2017-06-19T23:09:50.157Z,9.83
2017-06-19T23:12:24.644Z,10.50
2017-06-19T23:14:59.197Z,9.63
2017-06-19T23:17:33.776Z,9.37
2017-06-19T23:20:08.200Z,9.03
2017-06-19T23:22:42.581Z,10.30
2017-06-19T23:25:17.253Z,9.80
2017-06-19T23:27:51.782Z,10.20
2017-06-19T23:30:27.102Z,9.10
2017-06-19T23:33:01.628Z,10.70
2017-06-19T23:35:36.061Z,10.00
2017-06-19T23:38:10.569Z,11.00
2017-06-19T23:40:45.411Z,10.03
2017-06-19T23:43:19.896Z,10.90
2017-06-19T23:45:54.653Z,10.25
2017-06-19T23:48:29.148Z,9.60
2017-06-19T23:51:03.639Z,10.83
2017-06-19T23:53:38.188Z,11.40
2017-06-19T23:56:13.559Z,11.23
2017-06-19T23:58:48.052Z,12.30
